Terminal Aerodrome Forecast
Issued by NWS

Home | Current Version | Previous Version | Text Only | Print | Product List | Glossary On
Versions: 1 2 3 4 5 6 7 8 9 10 11 12 13 14 15 16 17
000
FTUS44 KOHX 231720
TAFCKV
TAF
KCKV 231720Z 2318/2418 27010G16KT 3SM -DZ BR BKN007 OVC015
     FM232100 24010G17KT P6SM FEW025 BKN070
     FM240000 19008KT P6SM BKN050
     FM241200 28014G23KT P6SM BKN050=

USA.gov is the U.S. government's official web portal to all federal, state and local government web resources and services.